sensor_id;sensor_type;location;lat;lon;timestamp;temperature;humidity
78619;DHT22;67941;52.506;5.470;2023-07-16T00:00:06;16.10;80.10
78619;DHT22;67941;52.506;5.470;2023-07-16T00:02:37;16.10;80.10
78619;DHT22;67941;52.506;5.470;2023-07-16T00:05:09;16.10;80.00
78619;DHT22;67941;52.506;5.470;2023-07-16T00:07:38;16.10;80.00
78619;DHT22;67941;52.506;5.470;2023-07-16T00:10:07;16.10;80.00
78619;DHT22;67941;52.506;5.470;2023-07-16T00:12:36;16.10;80.00
78619;DHT22;67941;52.506;5.470;2023-07-16T00:15:07;16.10;80.00
78619;DHT22;67941;52.506;5.470;2023-07-16T00:17:36;16.00;80.10
78619;DHT22;67941;52.506;5.470;2023-07-16T00:20:09;16.00;80.10
78619;DHT22;67941;52.506;5.470;2023-07-16T00:22:38;16.00;80.10
78619;DHT22;67941;52.506;5.470;2023-07-16T00:25:08;16.00;80.10
78619;DHT22;67941;52.506;5.470;2023-07-16T00:27:37;16.00;80.10
78619;DHT22;67941;52.506;5.470;2023-07-16T00:30:07;16.00;80.00
78619;DHT22;67941;52.506;5.470;2023-07-16T00:32:36;16.00;80.00
78619;DHT22;67941;52.506;5.470;2023-07-16T00:35:06;16.00;80.00
78619;DHT22;67941;52.506;5.470;2023-07-16T00:37:37;16.00;80.00
78619;DHT22;67941;52.506;5.470;2023-07-16T00:40:08;16.00;80.00
78619;DHT22;67941;52.506;5.470;2023-07-16T00:42:37;16.00;80.00
78619;DHT22;67941;52.506;5.470;2023-07-16T00:45:12;15.90;80.00
78619;DHT22;67941;52.506;5.470;2023-07-16T00:47:42;15.90;80.00
78619;DHT22;67941;52.506;5.470;2023-07-16T00:50:12;15.90;80.00
78619;DHT22;67941;52.506;5.470;2023-07-16T00:52:44;15.90;79.90
78619;DHT22;67941;52.506;5.470;2023-07-16T00:55:13;15.80;79.90
78619;DHT22;67941;52.506;5.470;2023-07-16T00:57:42;15.90;79.80
78619;DHT22;67941;52.506;5.470;2023-07-16T01:00:12;15.90;79.80
78619;DHT22;67941;52.506;5.470;2023-07-16T01:02:41;15.80;79.80
78619;DHT22;67941;52.506;5.470;2023-07-16T01:05:10;15.80;79.70
78619;DHT22;67941;52.506;5.470;2023-07-16T01:07:46;15.80;79.70
78619;DHT22;67941;52.506;5.470;2023-07-16T01:10:22;15.80;79.70
78619;DHT22;67941;52.506;5.470;2023-07-16T01:12:52;15.80;79.70
78619;DHT22;67941;52.506;5.470;2023-07-16T01:15:21;15.80;79.60
78619;DHT22;67941;52.506;5.470;2023-07-16T01:17:50;15.80;79.60
78619;DHT22;67941;52.506;5.470;2023-07-16T01:20:19;15.80;79.60
78619;DHT22;67941;52.506;5.470;2023-07-16T01:23:08;15.80;79.50
78619;DHT22;67941;52.506;5.470;2023-07-16T01:25:50;15.80;79.50
78619;DHT22;67941;52.506;5.470;2023-07-16T01:28:40;15.80;79.60
78619;DHT22;67941;52.506;5.470;2023-07-16T01:31:17;15.80;79.50
78619;DHT22;67941;52.506;5.470;2023-07-16T01:33:49;15.80;79.50
78619;DHT22;67941;52.506;5.470;2023-07-16T01:36:18;15.80;79.50
78619;DHT22;67941;52.506;5.470;2023-07-16T01:38:48;15.80;79.50
78619;DHT22;67941;52.506;5.470;2023-07-16T01:41:17;15.80;79.50
78619;DHT22;67941;52.506;5.470;2023-07-16T01:43:46;15.80;79.50
78619;DHT22;67941;52.506;5.470;2023-07-16T01:46:17;15.80;79.50
78619;DHT22;67941;52.506;5.470;2023-07-16T01:48:47;15.80;79.50
78619;DHT22;67941;52.506;5.470;2023-07-16T01:51:16;15.80;79.40
78619;DHT22;67941;52.506;5.470;2023-07-16T01:53:46;15.80;79.40
78619;DHT22;67941;52.506;5.470;2023-07-16T01:56:14;15.80;79.40
78619;DHT22;67941;52.506;5.470;2023-07-16T01:58:47;15.80;79.40
78619;DHT22;67941;52.506;5.470;2023-07-16T02:01:20;15.80;79.40
78619;DHT22;67941;52.506;5.470;2023-07-16T02:03:49;15.80;79.30
78619;DHT22;67941;52.506;5.470;2023-07-16T02:06:18;15.80;79.30
78619;DHT22;67941;52.506;5.470;2023-07-16T02:08:48;15.80;79.20
78619;DHT22;67941;52.506;5.470;2023-07-16T02:11:17;15.80;79.20
78619;DHT22;67941;52.506;5.470;2023-07-16T02:13:48;15.80;79.20
78619;DHT22;67941;52.506;5.470;2023-07-16T02:16:19;15.80;79.20
78619;DHT22;67941;52.506;5.470;2023-07-16T02:18:48;15.80;79.10
78619;DHT22;67941;52.506;5.470;2023-07-16T02:21:18;15.80;79.00
78619;DHT22;67941;52.506;5.470;2023-07-16T02:23:48;15.80;79.00
78619;DHT22;67941;52.506;5.470;2023-07-16T02:26:17;15.80;79.00
78619;DHT22;67941;52.506;5.470;2023-07-16T02:28:46;15.80;79.00
78619;DHT22;67941;52.506;5.470;2023-07-16T02:31:15;15.80;79.00
78619;DHT22;67941;52.506;5.470;2023-07-16T02:33:46;15.80;79.00
78619;DHT22;67941;52.506;5.470;2023-07-16T02:36:15;15.80;78.90
78619;DHT22;67941;52.506;5.470;2023-07-16T02:38:44;15.80;79.00
78619;DHT22;67941;52.506;5.470;2023-07-16T02:41:13;15.80;79.00
78619;DHT22;67941;52.506;5.470;2023-07-16T02:43:42;15.80;78.90
78619;DHT22;67941;52.506;5.470;2023-07-16T02:48:59;15.80;78.90
78619;DHT22;67941;52.506;5.470;2023-07-16T02:51:28;15.80;78.90
78619;DHT22;67941;52.506;5.470;2023-07-16T02:53:57;15.80;78.90
78619;DHT22;67941;52.506;5.470;2023-07-16T02:56:26;15.80;78.90
78619;DHT22;67941;52.506;5.470;2023-07-16T02:58:55;15.80;78.80
78619;DHT22;67941;52.506;5.470;2023-07-16T03:01:24;15.80;78.90
78619;DHT22;67941;52.506;5.470;2023-07-16T03:03:53;15.80;78.90
78619;DHT22;67941;52.506;5.470;2023-07-16T03:06:25;15.80;78.90
78619;DHT22;67941;52.506;5.470;2023-07-16T03:08:54;15.80;78.90
78619;DHT22;67941;52.506;5.470;2023-07-16T03:11:23;15.80;78.90
78619;DHT22;67941;52.506;5.470;2023-07-16T03:13:53;15.80;78.90
78619;DHT22;67941;52.506;5.470;2023-07-16T03:16:22;15.80;78.90
78619;DHT22;67941;52.506;5.470;2023-07-16T03:18:52;15.80;78.90
78619;DHT22;67941;52.506;5.470;2023-07-16T03:21:21;15.80;79.00
78619;DHT22;67941;52.506;5.470;2023-07-16T03:23:53;15.80;78.90
78619;DHT22;67941;52.506;5.470;2023-07-16T03:26:22;15.80;79.00
78619;DHT22;67941;52.506;5.470;2023-07-16T03:28:51;15.80;78.90
78619;DHT22;67941;52.506;5.470;2023-07-16T03:31:22;15.80;79.00
78619;DHT22;67941;52.506;5.470;2023-07-16T03:33:51;15.80;79.00
78619;DHT22;67941;52.506;5.470;2023-07-16T03:36:22;15.80;79.00
78619;DHT22;67941;52.506;5.470;2023-07-16T03:38:53;15.80;79.10
78619;DHT22;67941;52.506;5.470;2023-07-16T03:41:22;15.80;79.10
78619;DHT22;67941;52.506;5.470;2023-07-16T03:43:51;15.80;79.10
78619;DHT22;67941;52.506;5.470;2023-07-16T03:46:21;15.90;79.20
78619;DHT22;67941;52.506;5.470;2023-07-16T03:48:52;15.90;79.30
78619;DHT22;67941;52.506;5.470;2023-07-16T03:51:21;16.00;79.30
78619;DHT22;67941;52.506;5.470;2023-07-16T03:53:56;16.00;79.40
78619;DHT22;67941;52.506;5.470;2023-07-16T03:56:25;16.00;79.30
78619;DHT22;67941;52.506;5.470;2023-07-16T03:58:54;16.00;79.20
78619;DHT22;67941;52.506;5.470;2023-07-16T04:01:24;16.10;79.20
78619;DHT22;67941;52.506;5.470;2023-07-16T04:03:53;16.00;79.10
78619;DHT22;67941;52.506;5.470;2023-07-16T04:06:22;16.10;79.20
78619;DHT22;67941;52.506;5.470;2023-07-16T04:08:54;16.10;79.10
78619;DHT22;67941;52.506;5.470;2023-07-16T04:11:23;16.10;79.20
78619;DHT22;67941;52.506;5.470;2023-07-16T04:13:52;16.10;79.20
78619;DHT22;67941;52.506;5.470;2023-07-16T04:16:21;16.10;79.20
78619;DHT22;67941;52.506;5.470;2023-07-16T04:18:50;16.20;79.20
78619;DHT22;67941;52.506;5.470;2023-07-16T04:21:19;16.20;79.40
78619;DHT22;67941;52.506;5.470;2023-07-16T04:23:48;16.40;79.60
78619;DHT22;67941;52.506;5.470;2023-07-16T04:26:38;16.50;79.70
78619;DHT22;67941;52.506;5.470;2023-07-16T04:29:07;16.70;79.70
78619;DHT22;67941;52.506;5.470;2023-07-16T04:31:36;16.80;79.50
78619;DHT22;67941;52.506;5.470;2023-07-16T04:34:05;16.90;79.40
78619;DHT22;67941;52.506;5.470;2023-07-16T04:36:34;17.00;79.30
78619;DHT22;67941;52.506;5.470;2023-07-16T04:39:03;17.20;79.40
78619;DHT22;67941;52.506;5.470;2023-07-16T04:41:31;17.40;79.20
78619;DHT22;67941;52.506;5.470;2023-07-16T04:44:04;17.50;79.00
78619;DHT22;67941;52.506;5.470;2023-07-16T04:46:33;17.60;78.80
78619;DHT22;67941;52.506;5.470;2023-07-16T04:49:04;17.60;78.70
78619;DHT22;67941;52.506;5.470;2023-07-16T04:51:33;17.60;78.60
78619;DHT22;67941;52.506;5.470;2023-07-16T04:54:02;17.60;78.70
78619;DHT22;67941;52.506;5.470;2023-07-16T04:56:31;17.70;78.80
78619;DHT22;67941;52.506;5.470;2023-07-16T04:59:03;17.80;78.40
78619;DHT22;67941;52.506;5.470;2023-07-16T05:01:31;17.70;78.20
78619;DHT22;67941;52.506;5.470;2023-07-16T05:04:00;17.80;78.60
78619;DHT22;67941;52.506;5.470;2023-07-16T05:06:29;18.00;78.40
78619;DHT22;67941;52.506;5.470;2023-07-16T05:08:58;18.20;78.20
78619;DHT22;67941;52.506;5.470;2023-07-16T05:11:28;18.50;78.00
78619;DHT22;67941;52.506;5.470;2023-07-16T05:13:59;18.70;77.60
78619;DHT22;67941;52.506;5.470;2023-07-16T05:16:30;18.80;77.40
78619;DHT22;67941;52.506;5.470;2023-07-16T05:18:59;18.80;77.30
78619;DHT22;67941;52.506;5.470;2023-07-16T05:21:28;18.80;77.20
78619;DHT22;67941;52.506;5.470;2023-07-16T05:23:57;18.80;77.40
78619;DHT22;67941;52.506;5.470;2023-07-16T05:26:26;18.80;77.50
78619;DHT22;67941;52.506;5.470;2023-07-16T05:28:55;18.90;77.50
78619;DHT22;67941;52.506;5.470;2023-07-16T05:31:24;19.20;77.40
78619;DHT22;67941;52.506;5.470;2023-07-16T05:33:55;19.50;77.20
78619;DHT22;67941;52.506;5.470;2023-07-16T05:36:24;19.90;76.60
78619;DHT22;67941;52.506;5.470;2023-07-16T05:38:53;20.00;76.40
78619;DHT22;67941;52.506;5.470;2023-07-16T05:41:22;20.30;76.30
78619;DHT22;67941;52.506;5.470;2023-07-16T05:44:06;20.60;76.00
78619;DHT22;67941;52.506;5.470;2023-07-16T05:46:35;20.80;75.50
78619;DHT22;67941;52.506;5.470;2023-07-16T05:49:06;20.80;75.50
78619;DHT22;67941;52.506;5.470;2023-07-16T05:51:38;20.80;75.40
78619;DHT22;67941;52.506;5.470;2023-07-16T05:54:07;20.70;75.30
78619;DHT22;67941;52.506;5.470;2023-07-16T05:56:36;20.60;75.30
78619;DHT22;67941;52.506;5.470;2023-07-16T05:59:05;20.40;75.30
78619;DHT22;67941;52.506;5.470;2023-07-16T06:01:34;20.30;75.40
78619;DHT22;67941;52.506;5.470;2023-07-16T06:04:06;20.20;75.40
78619;DHT22;67941;52.506;5.470;2023-07-16T06:06:35;20.20;75.50
78619;DHT22;67941;52.506;5.470;2023-07-16T06:09:04;20.10;75.80
78619;DHT22;67941;52.506;5.470;2023-07-16T06:11:33;20.00;75.80
78619;DHT22;67941;52.506;5.470;2023-07-16T06:14:02;20.00;76.00
78619;DHT22;67941;52.506;5.470;2023-07-16T06:16:31;19.90;76.20
78619;DHT22;67941;52.506;5.470;2023-07-16T06:19:00;19.70;76.20
78619;DHT22;67941;52.506;5.470;2023-07-16T06:21:31;19.50;76.20
78619;DHT22;67941;52.506;5.470;2023-07-16T06:24:00;19.40;76.20
78619;DHT22;67941;52.506;5.470;2023-07-16T06:26:29;19.40;76.20
78619;DHT22;67941;52.506;5.470;2023-07-16T06:28:58;19.30;76.10
78619;DHT22;67941;52.506;5.470;2023-07-16T06:31:27;19.30;75.70
78619;DHT22;67941;52.506;5.470;2023-07-16T06:33:56;19.30;75.40
78619;DHT22;67941;52.506;5.470;2023-07-16T06:36:25;19.40;75.30
78619;DHT22;67941;52.506;5.470;2023-07-16T06:38:56;19.50;75.00
78619;DHT22;67941;52.506;5.470;2023-07-16T06:41:26;19.50;74.70
78619;DHT22;67941;52.506;5.470;2023-07-16T06:43:56;19.50;74.70
78619;DHT22;67941;52.506;5.470;2023-07-16T06:46:25;19.40;74.70
78619;DHT22;67941;52.506;5.470;2023-07-16T06:48:53;19.40;74.60
78619;DHT22;67941;52.506;5.470;2023-07-16T06:51:22;19.30;74.70
78619;DHT22;67941;52.506;5.470;2023-07-16T06:53:51;19.30;75.00
78619;DHT22;67941;52.506;5.470;2023-07-16T06:56:23;19.50;75.10
78619;DHT22;67941;52.506;5.470;2023-07-16T06:58:51;19.70;74.90
78619;DHT22;67941;52.506;5.470;2023-07-16T07:01:21;19.90;74.50
78619;DHT22;67941;52.506;5.470;2023-07-16T07:03:49;20.00;74.50
78619;DHT22;67941;52.506;5.470;2023-07-16T07:06:18;20.10;74.50
78619;DHT22;67941;52.506;5.470;2023-07-16T07:08:47;20.30;74.30
78619;DHT22;67941;52.506;5.470;2023-07-16T07:11:16;20.50;74.10
78619;DHT22;67941;52.506;5.470;2023-07-16T07:13:48;20.60;73.80
78619;DHT22;67941;52.506;5.470;2023-07-16T07:16:16;20.80;73.60
78619;DHT22;67941;52.506;5.470;2023-07-16T07:18:45;20.80;73.40
78619;DHT22;67941;52.506;5.470;2023-07-16T07:21:14;20.90;73.00
78619;DHT22;67941;52.506;5.470;2023-07-16T07:23:43;20.80;73.00
78619;DHT22;67941;52.506;5.470;2023-07-16T07:26:12;20.80;73.00
78619;DHT22;67941;52.506;5.470;2023-07-16T07:28:41;20.80;72.80
78619;DHT22;67941;52.506;5.470;2023-07-16T07:31:12;20.80;72.60
78619;DHT22;67941;52.506;5.470;2023-07-16T07:33:41;20.70;72.40
78619;DHT22;67941;52.506;5.470;2023-07-16T07:36:10;20.60;72.40
78619;DHT22;67941;52.506;5.470;2023-07-16T07:38:39;20.50;72.60
78619;DHT22;67941;52.506;5.470;2023-07-16T07:41:08;20.60;72.60
78619;DHT22;67941;52.506;5.470;2023-07-16T07:43:37;20.60;72.60
78619;DHT22;67941;52.506;5.470;2023-07-16T07:46:06;20.60;72.50
78619;DHT22;67941;52.506;5.470;2023-07-16T07:48:38;20.60;72.20
78619;DHT22;67941;52.506;5.470;2023-07-16T07:51:07;20.50;72.20
78619;DHT22;67941;52.506;5.470;2023-07-16T07:53:36;20.50;72.10
78619;DHT22;67941;52.506;5.470;2023-07-16T07:56:05;20.30;72.10
78619;DHT22;67941;52.506;5.470;2023-07-16T07:58:34;20.30;72.10
78619;DHT22;67941;52.506;5.470;2023-07-16T08:01:06;20.20;72.20
78619;DHT22;67941;52.506;5.470;2023-07-16T08:03:37;20.20;72.20
78619;DHT22;67941;52.506;5.470;2023-07-16T08:06:06;20.30;72.50
78619;DHT22;67941;52.506;5.470;2023-07-16T08:08:56;20.50;72.50
78619;DHT22;67941;52.506;5.470;2023-07-16T08:11:25;20.70;72.40
78619;DHT22;67941;52.506;5.470;2023-07-16T08:13:53;20.90;72.10
78619;DHT22;67941;52.506;5.470;2023-07-16T08:16:22;20.90;71.80
78619;DHT22;67941;52.506;5.470;2023-07-16T08:18:54;21.00;71.80
78619;DHT22;67941;52.506;5.470;2023-07-16T08:21:23;21.00;71.90
78619;DHT22;67941;52.506;5.470;2023-07-16T08:23:52;21.10;71.90
78619;DHT22;67941;52.506;5.470;2023-07-16T08:26:21;21.10;71.70
78619;DHT22;67941;52.506;5.470;2023-07-16T08:28:50;21.10;71.60
78619;DHT22;67941;52.506;5.470;2023-07-16T08:31:18;21.20;71.60
78619;DHT22;67941;52.506;5.470;2023-07-16T08:33:47;21.30;71.60
78619;DHT22;67941;52.506;5.470;2023-07-16T08:36:19;21.40;71.60
78619;DHT22;67941;52.506;5.470;2023-07-16T08:38:48;21.50;71.20
78619;DHT22;67941;52.506;5.470;2023-07-16T08:41:17;21.50;71.20
78619;DHT22;67941;52.506;5.470;2023-07-16T08:43:46;21.50;71.20
78619;DHT22;67941;52.506;5.470;2023-07-16T08:46:15;21.50;71.10
78619;DHT22;67941;52.506;5.470;2023-07-16T08:48:45;21.60;71.00
78619;DHT22;67941;52.506;5.470;2023-07-16T08:51:15;21.70;70.90
78619;DHT22;67941;52.506;5.470;2023-07-16T08:53:47;21.90;70.90
78619;DHT22;67941;52.506;5.470;2023-07-16T08:56:16;22.10;70.70
78619;DHT22;67941;52.506;5.470;2023-07-16T08:58:45;22.20;70.70
78619;DHT22;67941;52.506;5.470;2023-07-16T09:01:14;22.30;70.60
78619;DHT22;67941;52.506;5.470;2023-07-16T09:03:44;22.50;70.60
78619;DHT22;67941;52.506;5.470;2023-07-16T09:06:13;22.60;70.50
78619;DHT22;67941;52.506;5.470;2023-07-16T09:08:42;22.70;70.40
78619;DHT22;67941;52.506;5.470;2023-07-16T09:11:14;22.70;70.40
78619;DHT22;67941;52.506;5.470;2023-07-16T09:13:47;22.80;70.20
78619;DHT22;67941;52.506;5.470;2023-07-16T09:16:18;22.90;70.20
78619;DHT22;67941;52.506;5.470;2023-07-16T09:18:47;22.90;69.80
78619;DHT22;67941;52.506;5.470;2023-07-16T09:21:16;22.80;69.80
78619;DHT22;67941;52.506;5.470;2023-07-16T09:23:45;22.90;70.10
78619;DHT22;67941;52.506;5.470;2023-07-16T09:26:17;23.00;70.00
78619;DHT22;67941;52.506;5.470;2023-07-16T09:28:48;23.10;69.70
78619;DHT22;67941;52.506;5.470;2023-07-16T09:31:17;23.20;69.50
78619;DHT22;67941;52.506;5.470;2023-07-16T09:33:47;23.30;69.30
78619;DHT22;67941;52.506;5.470;2023-07-16T09:36:23;23.30;69.10
78619;DHT22;67941;52.506;5.470;2023-07-16T09:38:54;23.30;68.90
78619;DHT22;67941;52.506;5.470;2023-07-16T09:41:27;23.30;69.10
78619;DHT22;67941;52.506;5.470;2023-07-16T09:43:57;23.40;68.90
78619;DHT22;67941;52.506;5.470;2023-07-16T09:46:26;23.40;68.90
78619;DHT22;67941;52.506;5.470;2023-07-16T09:48:55;23.40;68.50
78619;DHT22;67941;52.506;5.470;2023-07-16T09:51:24;23.40;68.40
78619;DHT22;67941;52.506;5.470;2023-07-16T09:53:54;23.40;68.20
78619;DHT22;67941;52.506;5.470;2023-07-16T09:56:29;23.30;68.30
78619;DHT22;67941;52.506;5.470;2023-07-16T09:59:00;23.30;68.20
78619;DHT22;67941;52.506;5.470;2023-07-16T10:01:29;23.30;68.30
78619;DHT22;67941;52.506;5.470;2023-07-16T10:03:58;23.40;68.20
78619;DHT22;67941;52.506;5.470;2023-07-16T10:06:48;23.40;68.20
78619;DHT22;67941;52.506;5.470;2023-07-16T10:09:35;23.50;68.10
78619;DHT22;67941;52.506;5.470;2023-07-16T10:12:14;23.50;67.90
78619;DHT22;67941;52.506;5.470;2023-07-16T10:14:45;23.50;68.00
78619;DHT22;67941;52.506;5.470;2023-07-16T10:17:15;23.60;68.10
78619;DHT22;67941;52.506;5.470;2023-07-16T10:19:51;23.60;67.80
78619;DHT22;67941;52.506;5.470;2023-07-16T10:22:35;23.60;67.50
78619;DHT22;67941;52.506;5.470;2023-07-16T10:25:10;23.50;67.40
78619;DHT22;67941;52.506;5.470;2023-07-16T10:27:54;23.50;67.60
78619;DHT22;67941;52.506;5.470;2023-07-16T10:30:23;23.50;67.50
78619;DHT22;67941;52.506;5.470;2023-07-16T10:32:52;23.60;67.50
78619;DHT22;67941;52.506;5.470;2023-07-16T10:35:21;23.60;67.30
78619;DHT22;67941;52.506;5.470;2023-07-16T10:37:50;23.50;67.10
78619;DHT22;67941;52.506;5.470;2023-07-16T10:40:19;23.40;67.10
78619;DHT22;67941;52.506;5.470;2023-07-16T10:42:48;23.20;67.20
78619;DHT22;67941;52.506;5.470;2023-07-16T10:45:19;23.10;67.40
78619;DHT22;67941;52.506;5.470;2023-07-16T10:47:52;23.10;67.30
78619;DHT22;67941;52.506;5.470;2023-07-16T10:50:21;23.10;67.10
78619;DHT22;67941;52.506;5.470;2023-07-16T10:52:51;23.00;67.10
78619;DHT22;67941;52.506;5.470;2023-07-16T10:55:21;23.00;67.10
78619;DHT22;67941;52.506;5.470;2023-07-16T10:57:50;22.90;67.20
78619;DHT22;67941;52.506;5.470;2023-07-16T11:00:22;22.90;67.50
78619;DHT22;67941;52.506;5.470;2023-07-16T11:02:51;23.10;67.60
78619;DHT22;67941;52.506;5.470;2023-07-16T11:05:20;23.40;67.50
78619;DHT22;67941;52.506;5.470;2023-07-16T11:07:49;23.60;67.10
78619;DHT22;67941;52.506;5.470;2023-07-16T11:10:18;23.60;66.80
78619;DHT22;67941;52.506;5.470;2023-07-16T11:12:51;23.60;66.90
78619;DHT22;67941;52.506;5.470;2023-07-16T11:15:33;23.70;66.70
78619;DHT22;67941;52.506;5.470;2023-07-16T11:18:02;23.60;66.30
78619;DHT22;67941;52.506;5.470;2023-07-16T11:20:31;23.50;66.40
78619;DHT22;67941;52.506;5.470;2023-07-16T11:23:00;23.30;66.30
78619;DHT22;67941;52.506;5.470;2023-07-16T11:25:29;23.10;66.50
78619;DHT22;67941;52.506;5.470;2023-07-16T11:28:13;23.00;66.60
78619;DHT22;67941;52.506;5.470;2023-07-16T11:30:44;23.10;66.50
78619;DHT22;67941;52.506;5.470;2023-07-16T11:33:13;23.20;66.60
78619;DHT22;67941;52.506;5.470;2023-07-16T11:35:42;23.30;66.50
78619;DHT22;67941;52.506;5.470;2023-07-16T11:38:11;23.40;66.20
78619;DHT22;67941;52.506;5.470;2023-07-16T11:40:40;23.40;66.00
78619;DHT22;67941;52.506;5.470;2023-07-16T11:43:10;23.30;66.10
78619;DHT22;67941;52.506;5.470;2023-07-16T11:45:39;23.30;65.80
78619;DHT22;67941;52.506;5.470;2023-07-16T11:48:10;23.20;65.70
78619;DHT22;67941;52.506;5.470;2023-07-16T11:50:39;23.20;65.80
78619;DHT22;67941;52.506;5.470;2023-07-16T11:53:08;23.20;66.10
78619;DHT22;67941;52.506;5.470;2023-07-16T11:55:37;23.30;66.10
78619;DHT22;67941;52.506;5.470;2023-07-16T11:58:06;23.40;66.00
78619;DHT22;67941;52.506;5.470;2023-07-16T12:00:35;23.40;66.00
78619;DHT22;67941;52.506;5.470;2023-07-16T12:03:04;23.50;65.90
78619;DHT22;67941;52.506;5.470;2023-07-16T12:05:35;23.50;65.60
78619;DHT22;67941;52.506;5.470;2023-07-16T12:08:04;23.40;65.50
78619;DHT22;67941;52.506;5.470;2023-07-16T12:10:39;23.40;65.70
78619;DHT22;67941;52.506;5.470;2023-07-16T12:13:08;23.40;65.80
78619;DHT22;67941;52.506;5.470;2023-07-16T12:15:37;23.50;65.80
78619;DHT22;67941;52.506;5.470;2023-07-16T12:18:06;23.50;65.70
78619;DHT22;67941;52.506;5.470;2023-07-16T12:20:38;23.60;65.70
78619;DHT22;67941;52.506;5.470;2023-07-16T12:23:07;23.80;65.70
78619;DHT22;67941;52.506;5.470;2023-07-16T12:25:35;23.90;65.70
78619;DHT22;67941;52.506;5.470;2023-07-16T12:28:05;24.00;65.70
78619;DHT22;67941;52.506;5.470;2023-07-16T12:30:34;24.20;65.50
78619;DHT22;67941;52.506;5.470;2023-07-16T12:33:03;24.40;65.40
78619;DHT22;67941;52.506;5.470;2023-07-16T12:35:32;24.50;65.20
78619;DHT22;67941;52.506;5.470;2023-07-16T12:38:04;24.50;64.70
78619;DHT22;67941;52.506;5.470;2023-07-16T12:40:33;24.50;64.50
78619;DHT22;67941;52.506;5.470;2023-07-16T12:43:05;24.40;64.50
78619;DHT22;67941;52.506;5.470;2023-07-16T12:45:34;24.30;64.50
78619;DHT22;67941;52.506;5.470;2023-07-16T12:48:04;24.20;64.70
78619;DHT22;67941;52.506;5.470;2023-07-16T12:50:33;24.20;64.60
78619;DHT22;67941;52.506;5.470;2023-07-16T12:53:04;24.20;64.60
78619;DHT22;67941;52.506;5.470;2023-07-16T12:55:33;24.20;64.40
78619;DHT22;67941;52.506;5.470;2023-07-16T12:58:02;24.20;64.40
78619;DHT22;67941;52.506;5.470;2023-07-16T13:00:31;24.20;64.20
78619;DHT22;67941;52.506;5.470;2023-07-16T13:03:00;24.20;64.00
78619;DHT22;67941;52.506;5.470;2023-07-16T13:05:30;24.20;64.00
78619;DHT22;67941;52.506;5.470;2023-07-16T13:07:59;24.20;63.90
78619;DHT22;67941;52.506;5.470;2023-07-16T13:10:31;24.40;63.70
78619;DHT22;67941;52.506;5.470;2023-07-16T13:13:00;24.40;63.50
78619;DHT22;67941;52.506;5.470;2023-07-16T13:15:30;24.60;63.50
78619;DHT22;67941;52.506;5.470;2023-07-16T13:17:59;24.70;63.30
78619;DHT22;67941;52.506;5.470;2023-07-16T13:20:28;24.90;63.20
78619;DHT22;67941;52.506;5.470;2023-07-16T13:22:58;25.00;63.10
78619;DHT22;67941;52.506;5.470;2023-07-16T13:25:27;25.20;63.00
78619;DHT22;67941;52.506;5.470;2023-07-16T13:27:58;25.30;62.90
78619;DHT22;67941;52.506;5.470;2023-07-16T13:30:27;25.30;62.60
78619;DHT22;67941;52.506;5.470;2023-07-16T13:32:56;25.30;62.40
78619;DHT22;67941;52.506;5.470;2023-07-16T13:35:25;25.20;62.20
78619;DHT22;67941;52.506;5.470;2023-07-16T13:37:54;25.00;62.20
78619;DHT22;67941;52.506;5.470;2023-07-16T13:40:23;25.00;62.20
78619;DHT22;67941;52.506;5.470;2023-07-16T13:42:52;25.00;62.20
78619;DHT22;67941;52.506;5.470;2023-07-16T13:45:24;25.00;62.10
78619;DHT22;67941;52.506;5.470;2023-07-16T13:47:53;25.00;62.00
78619;DHT22;67941;52.506;5.470;2023-07-16T13:50:22;25.00;62.00
78619;DHT22;67941;52.506;5.470;2023-07-16T13:52:51;25.10;61.80
78619;DHT22;67941;52.506;5.470;2023-07-16T13:55:21;25.00;61.80
78619;DHT22;67941;52.506;5.470;2023-07-16T13:57:50;25.10;62.10
78619;DHT22;67941;52.506;5.470;2023-07-16T14:00:19;25.20;62.10
78619;DHT22;67941;52.506;5.470;2023-07-16T14:02:50;25.30;62.00
78619;DHT22;67941;52.506;5.470;2023-07-16T14:05:20;25.40;62.00
78619;DHT22;67941;52.506;5.470;2023-07-16T14:07:49;25.40;62.00
78619;DHT22;67941;52.506;5.470;2023-07-16T14:10:19;25.40;61.80
78619;DHT22;67941;52.506;5.470;2023-07-16T14:12:48;25.40;61.70
78619;DHT22;67941;52.506;5.470;2023-07-16T14:15:17;25.30;61.40
78619;DHT22;67941;52.506;5.470;2023-07-16T14:17:46;25.20;61.20
78619;DHT22;67941;52.506;5.470;2023-07-16T14:20:17;25.00;61.10
78619;DHT22;67941;52.506;5.470;2023-07-16T14:22:46;25.00;61.20
78619;DHT22;67941;52.506;5.470;2023-07-16T14:25:15;25.00;61.00
78619;DHT22;67941;52.506;5.470;2023-07-16T14:27:44;25.00;60.90
78619;DHT22;67941;52.506;5.470;2023-07-16T14:30:13;24.90;60.90
78619;DHT22;67941;52.506;5.470;2023-07-16T14:32:42;24.90;61.00
78619;DHT22;67941;52.506;5.470;2023-07-16T14:35:11;25.00;60.90
78619;DHT22;67941;52.506;5.470;2023-07-16T14:37:43;25.00;60.90
78619;DHT22;67941;52.506;5.470;2023-07-16T14:40:13;25.20;60.80
78619;DHT22;67941;52.506;5.470;2023-07-16T14:42:42;25.30;60.70
78619;DHT22;67941;52.506;5.470;2023-07-16T14:45:11;25.40;60.50
78619;DHT22;67941;52.506;5.470;2023-07-16T14:47:40;25.30;60.60
78619;DHT22;67941;52.506;5.470;2023-07-16T14:50:10;25.30;60.70
78619;DHT22;67941;52.506;5.470;2023-07-16T14:52:39;25.20;60.50
78619;DHT22;67941;52.506;5.470;2023-07-16T14:55:11;25.20;60.50
78619;DHT22;67941;52.506;5.470;2023-07-16T14:57:41;25.00;60.50
78619;DHT22;67941;52.506;5.470;2023-07-16T15:00:11;25.00;60.50
78619;DHT22;67941;52.506;5.470;2023-07-16T15:02:40;24.80;60.60
78619;DHT22;67941;52.506;5.470;2023-07-16T15:05:10;24.80;60.70
78619;DHT22;67941;52.506;5.470;2023-07-16T15:07:39;24.80;60.70
78619;DHT22;67941;52.506;5.470;2023-07-16T15:10:11;24.80;60.80
78619;DHT22;67941;52.506;5.470;2023-07-16T15:12:41;24.90;60.80
78619;DHT22;67941;52.506;5.470;2023-07-16T15:15:10;24.90;60.60
78619;DHT22;67941;52.506;5.470;2023-07-16T15:17:39;24.80;60.50
78619;DHT22;67941;52.506;5.470;2023-07-16T15:20:10;24.70;60.50
78619;DHT22;67941;52.506;5.470;2023-07-16T15:22:39;24.70;60.50
78619;DHT22;67941;52.506;5.470;2023-07-16T15:25:11;24.70;60.50
78619;DHT22;67941;52.506;5.470;2023-07-16T15:27:40;24.70;60.40
78619;DHT22;67941;52.506;5.470;2023-07-16T15:30:10;24.70;60.30
78619;DHT22;67941;52.506;5.470;2023-07-16T15:32:39;24.60;60.30
78619;DHT22;67941;52.506;5.470;2023-07-16T15:35:08;24.50;60.30
78619;DHT22;67941;52.506;5.470;2023-07-16T15:37:37;24.50;60.20
78619;DHT22;67941;52.506;5.470;2023-07-16T15:40:15;24.40;60.30
78619;DHT22;67941;52.506;5.470;2023-07-16T15:42:44;24.40;60.30
78619;DHT22;67941;52.506;5.470;2023-07-16T15:45:13;24.40;60.50
78619;DHT22;67941;52.506;5.470;2023-07-16T15:47:42;24.40;60.40
78619;DHT22;67941;52.506;5.470;2023-07-16T15:50:12;24.40;60.30